Time;durP1;ratioP1;P1;durP2;ratioP2;P2;SDS_P1;SDS_P2;PMS_P1;PMS_P2;Temp;Humidity;BMP_temperature;BMP_pressure;BME280_temperature;BME280_humidity;BME280_pressure;Samples;Min_cycle;Max_cycle;Signal;HPM_P1;HPM_P2
2021/11/23 00:08:02;;;;;;;13.8;18.9;;;;;;;4;73.3;99500;;;;
2021/11/23 00:19:01;;;;;;;13.8;18.9;;;;;;;3.8;72.5;99500;;;;
2021/11/23 00:30:01;;;;;;;13.8;18.9;;;;;;;3.6;72.7;99500;;;;
2021/11/23 00:41:01;;;;;;;12.2;16;;;;;;;3.1;74.4;99520;;;;
2021/11/23 00:51:01;;;;;;;12.2;16;;;;;;;2.7;76.1;99530;;;;
2021/11/23 01:02:01;;;;;;;12.2;16;;;;;;;2.4;75.9;99560;;;;
2021/11/23 01:13:01;;;;;;;10.9;16.4;;;;;;;2.2;76.8;99560;;;;
2021/11/23 01:24:01;;;;;;;10.9;16.4;;;;;;;2.2;77;99560;;;;
2021/11/23 01:35:01;;;;;;;10.9;16.4;;;;;;;2.3;77.3;99550;;;;
2021/11/23 01:45:01;;;;;;;11.1;15.1;;;;;;;2.5;77.3;99560;;;;
2021/11/23 01:56:01;;;;;;;11.1;15.1;;;;;;;2.6;77.4;99540;;;;
2021/11/23 02:07:01;;;;;;;12.4;17.1;;;;;;;2.8;76.9;99550;;;;
2021/11/23 02:17:01;;;;;;;12.4;17.1;;;;;;;2.8;76.9;99550;;;;
2021/11/23 02:28:01;;;;;;;12.4;17.1;;;;;;;2.8;76.7;99540;;;;
2021/11/23 02:39:01;;;;;;;17.1;22.4;;;;;;;2.9;76.2;99550;;;;
2021/11/23 02:49:01;;;;;;;17.1;22.4;;;;;;;3;75.8;99550;;;;
2021/11/23 02:59:01;;;;;;;17.1;22.4;;;;;;;3;75.2;99560;;;;
2021/11/23 03:10:01;;;;;;;17.8;21.3;;;;;;;3;74.3;99580;;;;
2021/11/23 03:20:01;;;;;;;17.8;21.3;;;;;;;3.1;74.3;99580;;;;
2021/11/23 03:31:01;;;;;;;17.8;21.3;;;;;;;3.1;74.2;99590;;;;
2021/11/23 03:41:01;;;;;;;18.4;21.8;;;;;;;3.1;74.2;99590;;;;
2021/11/23 03:52:01;;;;;;;18.4;21.8;;;;;;;3.1;74.1;99580;;;;
2021/11/23 04:02:02;;;;;;;18.4;21.8;;;;;;;3;73.8;99590;;;;
2021/11/23 04:13:01;;;;;;;19.3;22.6;;;;;;;2.9;74.1;99590;;;;
2021/11/23 04:24:01;;;;;;;19.3;22.6;;;;;;;2.9;73.6;99590;;;;
2021/11/23 04:35:01;;;;;;;19.3;22.6;;;;;;;2.9;72.3;99590;;;;
2021/11/23 04:45:01;;;;;;;17.6;21;;;;;;;2.8;71.8;99590;;;;
2021/11/23 04:56:01;;;;;;;17.6;21;;;;;;;2.8;71.4;99580;;;;
2021/11/23 05:06:01;;;;;;;14.5;19.3;;;;;;;2.8;71.5;99580;;;;
2021/11/23 05:17:01;;;;;;;14.5;19.3;;;;;;;2.7;71.9;99580;;;;
2021/11/23 05:27:02;;;;;;;14.5;19.3;;;;;;;2.8;73.2;99580;;;;
2021/11/23 05:37:01;;;;;;;16.6;21.6;;;;;;;2.7;73.9;99570;;;;
2021/11/23 05:47:01;;;;;;;16.6;21.6;;;;;;;2.7;74.1;99580;;;;
2021/11/23 05:58:02;;;;;;;16.6;21.6;;;;;;;2.8;74.2;99590;;;;
2021/11/23 06:09:05;;;;;;;19.8;25.8;;;;;;;2.7;74;99590;;;;
2021/11/23 06:19:01;;;;;;;19.8;25.8;;;;;;;2.7;73.6;99610;;;;
2021/11/23 06:29:01;;;;;;;19.8;25.8;;;;;;;2.7;73.6;99630;;;;
2021/11/23 06:40:01;;;;;;;20.5;25.4;;;;;;;2.8;74.6;99640;;;;
2021/11/23 06:50:01;;;;;;;20.5;25.4;;;;;;;2.8;74.8;99650;;;;
2021/11/23 07:00:02;;;;;;;20.5;25.4;;;;;;;2.8;74.2;99660;;;;
2021/11/23 07:11:01;;;;;;;20.3;26.3;;;;;;;2.7;72.6;99660;;;;
2021/11/23 07:21:01;;;;;;;20.3;26.3;;;;;;;2.5;71.1;99660;;;;
2021/11/23 07:31:01;;;;;;;20.3;26.3;;;;;;;2.4;74;99660;;;;
2021/11/23 07:42:04;;;;;;;12.8;17.7;;;;;;;2.3;75.1;99650;;;;
2021/11/23 07:52:01;;;;;;;12.8;17.7;;;;;;;2.3;75;99650;;;;
2021/11/23 08:03:01;;;;;;;12.8;17.7;;;;;;;2.3;73.3;99660;;;;
2021/11/23 08:14:01;;;;;;;11.2;14;;;;;;;2.3;72.8;99670;;;;
2021/11/23 08:24:01;;;;;;;11.2;14;;;;;;;2.3;72.1;99670;;;;
2021/11/23 08:35:01;;;;;;;11.2;14;;;;;;;2.6;71.4;99680;;;;
2021/11/23 08:46:02;;;;;;;8.9;14;;;;;;;2.8;71.3;99690;;;;
2021/11/23 08:56:01;;;;;;;8.9;14;;;;;;;3.1;70.8;99700;;;;
2021/11/23 09:07:03;;;;;;;11.1;15.9;;;;;;;3.1;70.4;99700;;;;
2021/11/23 09:17:01;;;;;;;11.1;15.9;;;;;;;3.1;70.5;99690;;;;
2021/11/23 09:28:01;;;;;;;11.1;15.9;;;;;;;3;70.2;99690;;;;
2021/11/23 09:39:01;;;;;;;10;15;;;;;;;3.3;66.1;99680;;;;
2021/11/23 09:49:01;;;;;;;10;15;;;;;;;3.7;64.1;99680;;;;
2021/11/23 09:59:01;;;;;;;10;15;;;;;;;3.9;63.1;99650;;;;
2021/11/23 10:10:01;;;;;;;5;9.9;;;;;;;4.2;62.3;99640;;;;
2021/11/23 10:21:01;;;;;;;5;9.9;;;;;;;4.3;61.4;99620;;;;
2021/11/23 10:32:01;;;;;;;5;9.9;;;;;;;4.6;61.7;99640;;;;
2021/11/23 10:42:02;;;;;;;4.8;8.4;;;;;;;4.7;60.1;99630;;;;
2021/11/23 10:52:02;;;;;;;4.8;8.4;;;;;;;4.9;58;99630;;;;
2021/11/23 11:03:02;;;;;;;4.8;8.4;;;;;;;5;57.3;99620;;;;
2021/11/23 11:14:01;;;;;;;5;8;;;;;;;5.3;56.3;99620;;;;
2021/11/23 11:24:01;;;;;;;5;8;;;;;;;5.5;56.1;99610;;;;
2021/11/23 11:35:01;;;;;;;4.3;7.6;;;;;;;5.6;56.2;99600;;;;
2021/11/23 11:45:02;;;;;;;4.3;7.6;;;;;;;5.8;54.3;99600;;;;
2021/11/23 11:56:02;;;;;;;4.3;7.6;;;;;;;6;53.5;99590;;;;
2021/11/23 12:07:06;;;;;;;3.6;6.2;;;;;;;6.1;53;99560;;;;
2021/11/23 12:17:01;;;;;;;3.6;6.2;;;;;;;6.2;52.4;99560;;;;
2021/11/23 12:27:01;;;;;;;3.6;6.2;;;;;;;5.8;53;99560;;;;
2021/11/23 12:38:01;;;;;;;4.1;6.7;;;;;;;5.5;53.3;99550;;;;
2021/11/23 12:49:01;;;;;;;4.1;6.7;;;;;;;5.3;55.4;99560;;;;
2021/11/23 13:00:02;;;;;;;4.1;6.7;;;;;;;5.1;55.4;99550;;;;
2021/11/23 13:10:02;;;;;;;5.3;9.3;;;;;;;5.3;55.9;99540;;;;
2021/11/23 13:21:02;;;;;;;5.3;9.3;;;;;;;5.4;55.5;99530;;;;
2021/11/23 13:32:01;;;;;;;5.3;9.3;;;;;;;5.6;55.3;99540;;;;
2021/11/23 13:42:02;;;;;;;4;7.1;;;;;;;5.6;55.4;99560;;;;
2021/11/23 13:53:01;;;;;;;4;7.1;;;;;;;5.7;55.7;99580;;;;
2021/11/23 14:04:01;;;;;;;4;7.1;;;;;;;5.5;56.8;99570;;;;
2021/11/23 14:15:02;;;;;;;5.1;8.6;;;;;;;5.5;57.8;99570;;;;
2021/11/23 14:26:01;;;;;;;5.1;8.6;;;;;;;5.5;58.8;99570;;;;
2021/11/23 14:37:01;;;;;;;7.5;12.7;;;;;;;5.3;60;99580;;;;
2021/11/23 14:47:02;;;;;;;7.5;12.7;;;;;;;5.2;60.8;99580;;;;
2021/11/23 14:58:02;;;;;;;7.5;12.7;;;;;;;5;62.3;99580;;;;
2021/11/23 15:09:01;;;;;;;6.4;9.6;;;;;;;4.9;63.6;99580;;;;
2021/11/23 15:20:01;;;;;;;6.4;9.6;;;;;;;4.7;64.2;99570;;;;
2021/11/23 15:30:01;;;;;;;6.4;9.6;;;;;;;4.6;64.5;99580;;;;
2021/11/23 15:41:02;;;;;;;7.7;11.5;;;;;;;4.6;64.7;99600;;;;
2021/11/23 15:51:04;;;;;;;7.7;11.5;;;;;;;4.7;64.4;99600;;;;
2021/11/23 16:02:02;;;;;;;7.7;11.5;;;;;;;4.6;64.4;99610;;;;
2021/11/23 16:12:02;;;;;;;11.6;17.2;;;;;;;4.7;64.4;99620;;;;
2021/11/23 16:23:01;;;;;;;11.6;17.2;;;;;;;4.7;64.9;99610;;;;
2021/11/23 16:33:01;;;;;;;11.6;17.2;;;;;;;4.7;64.8;99610;;;;
2021/11/23 16:43:01;;;;;;;11.8;15.3;;;;;;;4.7;65.3;99620;;;;
2021/11/23 16:54:01;;;;;;;11.8;15.3;;;;;;;4.7;66.1;99620;;;;
2021/11/23 17:04:02;;;;;;;14.4;19.9;;;;;;;4.7;66.5;99620;;;;
2021/11/23 17:14:02;;;;;;;14.4;19.9;;;;;;;4.8;66;99630;;;;
2021/11/23 17:25:03;;;;;;;14.4;19.9;;;;;;;4.9;66;99640;;;;
2021/11/23 17:36:01;;;;;;;14.5;21.2;;;;;;;4.9;66.5;99660;;;;
2021/11/23 17:46:02;;;;;;;14.5;21.2;;;;;;;5;66.7;99660;;;;
2021/11/23 17:57:02;;;;;;;14.5;21.2;;;;;;;4.9;67.4;99660;;;;
2021/11/23 18:08:02;;;;;;;15.8;21;;;;;;;4.9;68;99670;;;;
2021/11/23 18:19:01;;;;;;;15.8;21;;;;;;;5;68;99660;;;;
2021/11/23 18:30:01;;;;;;;15.8;21;;;;;;;5;68.3;99660;;;;
2021/11/23 18:41:01;;;;;;;18.1;23.3;;;;;;;4.9;68;99660;;;;
2021/11/23 18:52:01;;;;;;;18.1;23.3;;;;;;;4.9;68.2;99670;;;;
2021/11/23 19:03:01;;;;;;;18.1;23.3;;;;;;;4.9;68.6;99670;;;;
2021/11/23 19:13:02;;;;;;;17.4;24.1;;;;;;;4.9;69.1;99670;;;;
2021/11/23 19:24:01;;;;;;;17.4;24.1;;;;;;;4.9;68.6;99680;;;;
2021/11/23 19:34:02;;;;;;;18.9;23.4;;;;;;;4.9;68.3;99670;;;;
2021/11/23 19:45:01;;;;;;;18.9;23.4;;;;;;;4.9;67.5;99690;;;;
2021/11/23 19:56:01;;;;;;;18.9;23.4;;;;;;;4.9;67.8;99690;;;;
2021/11/23 20:06:01;;;;;;;21.8;27.4;;;;;;;4.9;68.6;99690;;;;
2021/11/23 20:16:01;;;;;;;21.8;27.4;;;;;;;5;68.6;99700;;;;
2021/11/23 20:27:01;;;;;;;21.8;27.4;;;;;;;5;68.8;99710;;;;
2021/11/23 20:37:02;;;;;;;21.4;24.9;;;;;;;5;69.3;99700;;;;
2021/11/23 20:47:02;;;;;;;21.4;24.9;;;;;;;5;70.2;99700;;;;
2021/11/23 20:58:02;;;;;;;21.4;24.9;;;;;;;4.8;71.9;99700;;;;
2021/11/23 21:09:01;;;;;;;20.2;28.5;;;;;;;4.6;73.4;99700;;;;
2021/11/23 21:19:02;;;;;;;20.2;28.5;;;;;;;4.6;75.1;99700;;;;
2021/11/23 21:29:02;;;;;;;20.2;28.5;;;;;;;4.6;75.8;99700;;;;
2021/11/23 21:40:06;;;;;;;20.3;27.9;;;;;;;4.6;76.5;99710;;;;
2021/11/23 21:51:02;;;;;;;20.3;27.9;;;;;;;4.6;77.3;99710;;;;
2021/11/23 22:01:02;;;;;;;20.3;27.9;;;;;;;4.6;77.5;99710;;;;
2021/11/23 22:11:02;;;;;;;22.4;27.4;;;;;;;4.6;78.1;99700;;;;
2021/11/23 22:22:02;;;;;;;22.4;27.4;;;;;;;4.7;77.9;99710;;;;
2021/11/23 22:33:02;;;;;;;23.8;28;;;;;;;4.7;78.2;99700;;;;
2021/11/23 22:44:01;;;;;;;23.8;28;;;;;;;4.9;77.8;99700;;;;
2021/11/23 22:54:02;;;;;;;23.8;28;;;;;;;4.8;78;99690;;;;
2021/11/23 23:05:02;;;;;;;23.9;27.6;;;;;;;4.9;77.6;99690;;;;
2021/11/23 23:15:02;;;;;;;23.9;27.6;;;;;;;5;77.7;99680;;;;
2021/11/23 23:26:04;;;;;;;23.9;27.6;;;;;;;4.8;78.1;99680;;;;
2021/11/23 23:36:02;;;;;;;22;28.4;;;;;;;5;77.7;99680;;;;
2021/11/23 23:47:02;;;;;;;22;28.4;;;;;;;5.1;77.3;99680;;;;
2021/11/23 23:58:02;;;;;;;22;28.4;;;;;;;5.1;77;99680;;;;
